IDs: Format: Raw Decoded Include TAF

Data at: 0754 UTC 24 Mar 2018

METAR for:KMNN (Marion Muni, OH, US)
Text:KMNN 240653Z AUTO 05004KT 10SM CLR M06/M08 A3028 RMK AO2 SLP264 T10561078 $
Temperature: -5.6°C ( 22°F)
Dewpoint: -7.8°C ( 18°F) [RH = 84%]
Pressure (altimeter):30.28 inches Hg (1025.5 mb) [Sea level pressure: 1026.4 mb]
Winds:from the NE (50 degrees) at 5 MPH (4 knots; 2.1 m/s)
Visibility:10 or more sm (16+ km)
Ceiling:at least 12,000 feet AGL
Clouds:sky clear below 12,000 feet AGL
QC Flag:automated observation with no human augmentation; SOME DATA ABOVE MAY BE INACCURATE!!!"$" is an indication the sensor requires maintenance.